Time;durP1;ratioP1;P1;durP2;ratioP2;P2;SDS_P1;SDS_P2;PMS_P1;PMS_P2;Temp;Humidity;BMP_temperature;BMP_pressure;BME280_temperature;BME280_humidity;BME280_pressure;Samples;Min_cycle;Max_cycle;Signal;HPM_P1;HPM_P2
2023/01/19 00:01:25;;;;;;;28.88;20.67;;;-0.10;99.90;;;;;;5051764;28;20039;-85
2023/01/19 00:03:51;;;;;;;30.42;21.20;;;-0.10;99.90;;;;;;5052076;28;20025;-85
2023/01/19 00:06:17;;;;;;;34.15;21.85;;;-0.10;99.90;;;;;;5051815;28;20060;-85
2023/01/19 00:08:44;;;;;;;34.53;23.25;;;0.20;99.90;;;;;;5052042;28;20028;-85
2023/01/19 00:11:11;;;;;;;35.00;22.75;;;-0.20;99.90;;;;;;5051927;28;20025;-84
2023/01/19 00:13:38;;;;;;;34.88;22.27;;;-0.20;99.90;;;;;;5051982;28;20013;-85
2023/01/19 00:16:04;;;;;;;35.45;22.52;;;-0.20;99.90;;;;;;5051052;28;20481;-84
2023/01/19 00:18:30;;;;;;;34.58;22.48;;;-0.20;99.90;;;;;;5051875;28;20044;-85
2023/01/19 00:20:56;;;;;;;35.58;23.55;;;-0.30;99.90;;;;;;5051963;28;20070;-85
2023/01/19 00:23:22;;;;;;;37.40;23.90;;;-0.30;99.90;;;;;;5051730;28;20423;-85
2023/01/19 00:25:49;;;;;;;33.20;22.10;;;-0.30;99.90;;;;;;5051394;28;20483;-84
2023/01/19 00:28:17;;;;;;;35.10;22.20;;;-0.30;99.90;;;;;;5051529;28;20057;-85
2023/01/19 00:30:44;;;;;;;29.90;19.73;;;-0.20;99.90;;;;;;5051312;28;20067;-85
2023/01/19 00:33:14;;;;;;;26.08;19.08;;;-0.20;99.90;;;;;;5052017;28;20025;-84
2023/01/19 00:35:41;;;;;;;30.50;18.58;;;-0.10;99.90;;;;;;5051574;28;20213;-85
2023/01/19 00:38:07;;;;;;;26.95;18.05;;;-0.20;99.90;;;;;;5051385;28;20033;-85
2023/01/19 00:40:33;;;;;;;26.95;18.48;;;-0.10;99.90;;;;;;5051496;28;20082;-85
2023/01/19 00:42:59;;;;;;;28.90;19.58;;;-0.20;99.90;;;;;;5051796;28;20385;-84
2023/01/19 00:45:25;;;;;;;31.92;19.75;;;-0.20;99.90;;;;;;5051229;28;20029;-84
2023/01/19 00:47:55;;;;;;;29.65;18.63;;;-0.30;99.90;;;;;;5051623;28;20039;-85
2023/01/19 00:50:22;;;;;;;27.77;19.13;;;-0.40;99.90;;;;;;5051727;28;20055;-85
2023/01/19 00:52:48;;;;;;;26.25;18.30;;;-0.40;99.90;;;;;;5051547;28;20439;-85
2023/01/19 00:55:14;;;;;;;28.95;18.98;;;-0.40;99.90;;;;;;5051203;28;20082;-85
2023/01/19 00:57:41;;;;;;;29.42;19.95;;;-0.40;99.90;;;;;;5051340;28;20025;-85
2023/01/19 01:00:10;;;;;;;31.30;20.98;;;-0.50;99.90;;;;;;5050974;28;20037;-85
2023/01/19 01:02:37;;;;;;;35.50;21.27;;;-0.60;99.90;;;;;;5053293;28;20108;-85
2023/01/19 01:05:04;;;;;;;31.55;20.52;;;-0.50;99.90;;;;;;5055396;28;20025;-85
2023/01/19 01:07:33;;;;;;;30.52;20.42;;;-0.50;99.90;;;;;;5055200;28;20102;-85
2023/01/19 01:09:59;;;;;;;31.17;20.25;;;-0.40;99.90;;;;;;5055084;28;20025;-85
2023/01/19 01:12:27;;;;;;;31.77;21.08;;;-0.60;99.90;;;;;;5037212;28;20023;-85
2023/01/19 01:14:53;;;;;;;34.13;21.95;;;-0.50;99.90;;;;;;5054487;28;20071;-85
2023/01/19 01:17:23;;;;;;;32.42;20.77;;;-0.20;99.90;;;;;;5054814;28;20056;-85
2023/01/19 01:19:50;;;;;;;27.77;18.08;;;-0.50;99.90;;;;;;5055023;28;20056;-85
2023/01/19 01:22:15;;;;;;;30.63;19.77;;;-0.50;99.90;;;;;;5054764;28;20056;-85
2023/01/19 01:24:41;;;;;;;26.00;17.38;;;-0.40;99.90;;;;;;5054586;28;20087;-85
2023/01/19 01:27:07;;;;;;;31.38;20.02;;;-0.50;99.90;;;;;;5055070;28;20024;-85
2023/01/19 01:29:34;;;;;;;30.63;20.77;;;-0.50;99.90;;;;;;5054362;28;20482;-84
2023/01/19 01:32:00;;;;;;;34.13;20.40;;;-0.50;99.90;;;;;;5054734;28;20095;-85
2023/01/19 01:34:26;;;;;;;32.05;21.35;;;-0.50;99.90;;;;;;5054518;28;20070;-85
2023/01/19 01:36:53;;;;;;;40.60;24.35;;;-0.50;99.90;;;;;;5054365;28;20478;-85
2023/01/19 01:39:19;;;;;;;34.33;22.92;;;-0.60;99.90;;;;;;5054558;28;20124;-85
2023/01/19 01:41:45;;;;;;;29.30;20.83;;;-0.80;99.90;;;;;;5054350;28;20103;-85
2023/01/19 01:44:51;;;;;;;31.55;20.48;;;-0.70;99.90;;;;;;5054041;28;20565;-85
2023/01/19 01:47:37;;;;;;;33.28;21.33;;;-0.70;99.90;;;;;;5054477;28;20021;-85
2023/01/19 01:50:06;;;;;;;30.75;20.10;;;-0.70;99.90;;;;;;5054553;28;20029;-85
2023/01/19 01:52:36;;;;;;;29.58;20.73;;;-0.80;99.90;;;;;;5054199;28;20029;-85
2023/01/19 01:55:05;;;;;;;33.38;22.52;;;-0.80;99.90;;;;;;5054283;28;20025;-85
2023/01/19 01:57:33;;;;;;;31.92;21.92;;;-0.80;99.90;;;;;;5053835;28;20032;-85
2023/01/19 01:59:59;;;;;;;32.20;20.52;;;-0.90;99.90;;;;;;5054264;28;20043;-84
2023/01/19 02:05:19;;;;;;;28.85;20.58;;;-0.90;99.90;;;;;;5054065;28;20036;-85
2023/01/19 02:13:23;;;;;;;30.17;20.02;;;-0.90;99.90;;;;;;5054193;28;20536;-85
2023/01/19 02:16:02;;;;;;;27.63;19.42;;;-1.10;99.90;;;;;;5053461;28;20029;-84
2023/01/19 02:18:30;;;;;;;31.02;19.05;;;-1.00;99.90;;;;;;5054145;28;20063;-85
2023/01/19 02:21:19;;;;;;;30.73;19.55;;;-1.00;99.90;;;;;;5053700;28;20107;-84
2023/01/19 02:23:45;;;;;;;28.90;18.80;;;-0.90;99.90;;;;;;5053436;28;20072;-85
2023/01/19 02:26:19;;;;;;;30.52;19.23;;;-0.90;99.90;;;;;;5054231;28;20033;-85
2023/01/19 02:28:49;;;;;;;26.15;18.55;;;-1.00;99.90;;;;;;5053697;28;20048;-85
2023/01/19 02:31:15;;;;;;;29.42;19.45;;;-1.00;99.90;;;;;;5053452;28;20106;-85
2023/01/19 02:33:41;;;;;;;27.55;18.58;;;-0.80;99.90;;;;;;5035493;28;20433;-85
2023/01/19 02:36:09;;;;;;;29.85;18.77;;;-0.70;99.90;;;;;;5053349;28;20029;-85
2023/01/19 02:38:37;;;;;;;27.67;19.02;;;-0.60;99.90;;;;;;5053463;28;20033;-85
2023/01/19 02:41:06;;;;;;;29.40;18.63;;;-0.60;99.90;;;;;;5053655;28;20052;-85
2023/01/19 02:43:32;;;;;;;26.42;17.73;;;-0.60;99.90;;;;;;5053497;28;20031;-85
2023/01/19 02:45:58;;;;;;;25.60;16.45;;;-0.70;99.90;;;;;;5053133;28;20627;-85
2023/01/19 02:48:24;;;;;;;25.95;16.70;;;-0.90;99.90;;;;;;5053284;28;20104;-85
2023/01/19 02:50:56;;;;;;;25.73;16.20;;;-1.10;99.90;;;;;;5053311;28;20029;-84
2023/01/19 02:53:24;;;;;;;26.42;16.70;;;-1.20;99.90;;;;;;5053400;28;20552;-85
2023/01/19 02:55:57;;;;;;;23.27;16.85;;;-1.10;99.90;;;;;;5052684;28;20104;-85
2023/01/19 02:58:35;;;;;;;28.00;16.70;;;-1.10;99.90;;;;;;5053060;28;20067;-85
2023/01/19 03:01:27;;;;;;;27.35;16.63;;;-1.10;99.90;;;;;;5053149;28;20055;-85
2023/01/19 03:04:09;;;;;;;26.45;16.35;;;-1.20;99.90;;;;;;4991443;28;20058;-85
2023/01/19 03:07:01;;;;;;;26.77;16.98;;;-1.30;99.90;;;;;;4991690;28;20410;-85
2023/01/19 03:10:05;;;;;;;26.65;17.05;;;-1.30;99.90;;;;;;4990990;28;20069;-86
2023/01/19 03:12:43;;;;;;;27.00;17.10;;;-1.30;99.90;;;;;;4933674;29;20075;-85
2023/01/19 03:15:19;;;;;;;27.95;17.38;;;-1.00;99.90;;;;;;4933967;29;20042;-85
2023/01/19 03:17:48;;;;;;;27.20;17.27;;;-0.80;99.90;;;;;;4951472;28;20043;-85
2023/01/19 03:20:20;;;;;;;25.05;16.83;;;-0.70;99.90;;;;;;4952417;28;20035;-85
2023/01/19 03:22:50;;;;;;;23.48;16.45;;;-0.80;99.90;;;;;;4952356;29;20535;-85
2023/01/19 03:25:18;;;;;;;27.95;16.77;;;-0.70;99.90;;;;;;4951814;28;20062;-85
2023/01/19 03:27:45;;;;;;;24.60;17.05;;;-0.80;99.90;;;;;;4952147;28;20050;-86
2023/01/19 03:30:18;;;;;;;21.58;14.73;;;-1.00;99.90;;;;;;4952131;29;20039;-85
2023/01/19 03:32:55;;;;;;;21.17;15.95;;;-1.00;99.90;;;;;;4952577;29;20082;-85
2023/01/19 03:35:24;;;;;;;24.27;15.60;;;-1.10;99.90;;;;;;4951971;28;20074;-85
2023/01/19 03:37:53;;;;;;;24.13;15.82;;;-1.10;99.90;;;;;;4952179;28;20040;-85
2023/01/19 03:40:19;;;;;;;24.73;16.55;;;-1.10;99.90;;;;;;4965459;28;20125;-86
2023/01/19 03:42:47;;;;;;;23.80;16.33;;;-1.20;99.90;;;;;;4990753;28;20081;-85
2023/01/19 03:45:13;;;;;;;28.45;16.98;;;-1.10;99.90;;;;;;4990512;28;20040;-85
2023/01/19 03:47:39;;;;;;;27.73;16.73;;;-1.20;99.90;;;;;;4990653;28;20399;-86
2023/01/19 03:50:13;;;;;;;29.00;16.58;;;-1.20;99.90;;;;;;5042601;28;20033;-85
2023/01/19 03:52:38;;;;;;;24.80;16.83;;;-1.20;99.90;;;;;;5052110;28;20027;-85
2023/01/19 03:55:05;;;;;;;24.73;16.58;;;-1.10;99.90;;;;;;5051416;28;20041;-85
2023/01/19 03:57:31;;;;;;;26.35;17.13;;;-1.20;99.90;;;;;;5051900;28;20087;-85
2023/01/19 03:59:57;;;;;;;25.13;16.90;;;-1.10;99.90;;;;;;5052278;28;20059;-85
2023/01/19 04:02:23;;;;;;;26.48;17.00;;;-1.20;99.90;;;;;;5052054;28;20074;-85
2023/01/19 04:04:49;;;;;;;26.63;17.05;;;-1.10;99.90;;;;;;5051815;28;20086;-85
2023/01/19 04:07:15;;;;;;;27.80;16.77;;;-1.20;99.90;;;;;;5051841;28;20029;-84
2023/01/19 04:09:41;;;;;;;24.40;16.45;;;-1.10;99.90;;;;;;5051477;28;20040;-85
2023/01/19 04:12:07;;;;;;;29.65;17.38;;;-1.20;99.90;;;;;;5051899;28;20021;-85
2023/01/19 04:14:33;;;;;;;25.63;16.13;;;-1.30;99.90;;;;;;5051740;28;20032;-85
2023/01/19 04:16:59;;;;;;;25.40;16.60;;;-1.30;99.90;;;;;;5051508;28;20389;-85
2023/01/19 04:19:24;;;;;;;26.95;16.65;;;-1.30;99.90;;;;;;5051368;28;20158;-85
2023/01/19 04:21:50;;;;;;;24.98;16.23;;;-0.90;99.90;;;;;;5051882;28;20028;-85
2023/01/19 04:24:16;;;;;;;24.63;16.65;;;-1.10;99.90;;;;;;5051581;28;20057;-85
2023/01/19 04:26:42;;;;;;;25.25;16.92;;;-0.90;99.90;;;;;;5051504;28;20036;-84
2023/01/19 04:29:08;;;;;;;26.40;17.50;;;-0.80;99.90;;;;;;5051766;28;20031;-85
2023/01/19 04:31:35;;;;;;;25.08;16.13;;;-0.70;99.90;;;;;;5051796;28;20117;-85
2023/01/19 04:34:01;;;;;;;26.63;16.35;;;-0.70;99.90;;;;;;5051912;28;20040;-85
2023/01/19 04:36:27;;;;;;;25.20;16.13;;;-0.60;99.90;;;;;;5051665;28;20022;-84
2023/01/19 04:38:53;;;;;;;26.30;17.23;;;-0.20;99.90;;;;;;5055051;28;20392;-85
2023/01/19 04:41:19;;;;;;;22.35;16.08;;;-0.50;99.90;;;;;;5055728;28;20438;-85
2023/01/19 04:43:46;;;;;;;24.67;16.85;;;-0.10;99.90;;;;;;5055523;28;20090;-85
2023/01/19 04:46:12;;;;;;;24.73;15.60;;;-0.50;99.90;;;;;;5055374;28;20033;-85
2023/01/19 04:48:38;;;;;;;25.13;15.18;;;-0.50;99.90;;;;;;5038102;28;20057;-85
2023/01/19 04:51:04;;;;;;;23.90;16.63;;;-0.30;99.90;;;;;;5055383;28;20528;-85
2023/01/19 04:53:29;;;;;;;24.73;16.05;;;-0.30;99.90;;;;;;5055167;28;20052;-85
2023/01/19 04:55:55;;;;;;;23.50;15.68;;;-0.30;99.90;;;;;;5055141;28;20051;-85
2023/01/19 04:58:21;;;;;;;23.85;16.00;;;-0.10;99.90;;;;;;5055030;28;20021;-85
2023/01/19 05:00:47;;;;;;;26.38;16.00;;;0.10;99.90;;;;;;5054844;28;20033;-85
2023/01/19 05:03:12;;;;;;;23.42;16.00;;;0.10;99.90;;;;;;5055198;28;20086;-85
2023/01/19 05:05:38;;;;;;;27.88;16.40;;;0.10;99.90;;;;;;5055267;28;20025;-85
2023/01/19 05:08:04;;;;;;;22.23;15.15;;;0.70;99.90;;;;;;5054501;28;20025;-86
2023/01/19 05:10:30;;;;;;;22.55;15.68;;;0.10;99.90;;;;;;5055088;28;20033;-85
2023/01/19 05:12:55;;;;;;;22.88;15.90;;;0.10;99.90;;;;;;5054594;28;20450;-85
2023/01/19 05:15:21;;;;;;;21.58;15.18;;;0.30;99.90;;;;;;5054982;28;20025;-85
2023/01/19 05:17:47;;;;;;;23.70;15.93;;;0.60;99.90;;;;;;5054886;28;20033;-85
2023/01/19 05:20:13;;;;;;;25.08;17.17;;;0.10;99.90;;;;;;5054663;28;20037;-85
2023/01/19 05:22:38;;;;;;;21.92;15.13;;;0.10;99.90;;;;;;5054995;28;20056;-85
2023/01/19 05:25:07;;;;;;;23.40;16.38;;;0.20;99.90;;;;;;5054113;28;20445;-85
2023/01/19 05:27:33;;;;;;;24.75;15.27;;;0.40;99.90;;;;;;5053244;28;20432;-85
2023/01/19 05:29:59;;;;;;;22.45;14.85;;;0.40;99.90;;;;;;5053177;28;20125;-85
2023/01/19 05:32:24;;;;;;;22.77;14.77;;;0.30;99.90;;;;;;5053219;28;20054;-85
2023/01/19 05:34:50;;;;;;;22.40;14.63;;;0.40;99.90;;;;;;5053332;28;20025;-86
2023/01/19 05:37:15;;;;;;;24.58;15.90;;;0.30;99.90;;;;;;5053082;28;20469;-85
2023/01/19 05:39:41;;;;;;;24.80;15.65;;;0.40;99.90;;;;;;5053340;28;20055;-85
2023/01/19 05:42:07;;;;;;;23.52;15.15;;;0.40;99.90;;;;;;5053197;28;20025;-85
2023/01/19 05:44:32;;;;;;;21.10;14.70;;;0.20;99.90;;;;;;5053068;28;20028;-85
2023/01/19 05:46:58;;;;;;;22.88;14.40;;;0.20;99.90;;;;;;5053496;28;20025;-85
2023/01/19 05:49:23;;;;;;;20.67;14.73;;;0.10;99.90;;;;;;5052683;28;20045;-85
2023/01/19 05:51:49;;;;;;;23.70;15.05;;;0.70;99.90;;;;;;5053023;28;20028;-85
2023/01/19 05:54:15;;;;;;;24.88;15.70;;;0.30;99.90;;;;;;5052867;28;20100;-85
2023/01/19 05:56:41;;;;;;;22.60;15.63;;;0.30;99.90;;;;;;5053006;28;20107;-85
2023/01/19 05:59:07;;;;;;;28.45;16.35;;;0.20;99.90;;;;;;5053606;28;20108;-85
2023/01/19 06:01:37;;;;;;;25.90;16.10;;;0.30;99.90;;;;;;5052812;28;20065;-85
2023/01/19 06:04:03;;;;;;;26.45;15.98;;;0.20;99.90;;;;;;5052334;28;21005;-85
2023/01/19 06:06:29;;;;;;;22.35;16.10;;;0.20;99.90;;;;;;5052784;28;20485;-85
2023/01/19 06:08:54;;;;;;;28.02;16.77;;;0.20;99.90;;;;;;5052948;28;20053;-85
2023/01/19 06:11:20;;;;;;;24.27;16.00;;;0.30;99.90;;;;;;5052748;28;20029;-85
2023/01/19 06:13:46;;;;;;;24.85;16.50;;;0.40;99.90;;;;;;5052520;28;20496;-85
2023/01/19 06:16:13;;;;;;;25.95;16.33;;;0.20;99.90;;;;;;5052399;28;20021;-85
2023/01/19 06:18:39;;;;;;;24.27;16.10;;;0.10;99.90;;;;;;5052118;28;20021;-85
2023/01/19 06:21:06;;;;;;;22.40;15.75;;;0.00;99.90;;;;;;5052898;28;20037;-85
2023/01/19 06:23:34;;;;;;;25.50;16.13;;;0.00;99.90;;;;;;5007761;28;1276934;-85
2023/01/19 06:26:00;;;;;;;26.25;17.73;;;-0.10;99.90;;;;;;5053554;28;20024;-85
2023/01/19 06:28:26;;;;;;;27.42;18.15;;;-0.10;99.90;;;;;;5053368;28;20504;-85
2023/01/19 06:30:54;;;;;;;26.25;18.02;;;-0.20;99.90;;;;;;5053208;28;20025;-85
2023/01/19 06:33:21;;;;;;;29.73;19.30;;;-0.20;99.90;;;;;;5053184;28;20021;-85
2023/01/19 06:35:49;;;;;;;28.88;18.98;;;-0.20;99.90;;;;;;5054096;28;20053;-85
2023/01/19 06:38:17;;;;;;;31.45;19.45;;;-0.20;99.90;;;;;;5053341;28;20075;-85
2023/01/19 06:40:43;;;;;;;29.90;19.77;;;0.30;99.90;;;;;;5053243;28;20040;-85
2023/01/19 06:43:10;;;;;;;29.13;18.10;;;-0.30;99.90;;;;;;5053691;28;20025;-85
2023/01/19 06:45:38;;;;;;;26.17;18.92;;;-0.30;99.90;;;;;;5053029;28;20036;-86
2023/01/19 06:48:04;;;;;;;27.38;18.80;;;-0.40;99.90;;;;;;5052763;28;20473;-85
2023/01/19 06:50:30;;;;;;;30.13;19.20;;;-0.40;99.90;;;;;;5053429;28;20465;-85
2023/01/19 06:52:55;;;;;;;26.83;18.02;;;-0.50;99.90;;;;;;5053002;28;20082;-85
2023/01/19 06:55:21;;;;;;;25.80;18.08;;;-0.50;99.90;;;;;;5053215;28;20028;-85
2023/01/19 06:57:46;;;;;;;28.40;19.00;;;-0.50;99.90;;;;;;5052811;28;20025;-85
2023/01/19 07:00:13;;;;;;;26.85;17.73;;;-0.50;99.90;;;;;;5052395;28;20515;-85
2023/01/19 07:02:42;;;;;;;31.50;20.67;;;-0.50;99.90;;;;;;5052264;28;20489;-86
2023/01/19 07:05:09;;;;;;;53.47;29.88;;;-0.50;99.90;;;;;;5052600;28;20492;-85
2023/01/19 07:07:38;;;;;;;41.30;26.67;;;-0.30;99.90;;;;;;5052598;28;20483;-85
2023/01/19 07:10:06;;;;;;;310.45;103.88;;;-0.30;99.90;;;;;;5052580;28;20047;-85
2023/01/19 07:12:32;;;;;;;168.32;57.97;;;-0.20;99.90;;;;;;5053275;28;20024;-85
2023/01/19 07:14:58;;;;;;;361.30;111.15;;;0.00;99.90;;;;;;5052386;28;20492;-85
2023/01/19 07:17:24;;;;;;;92.03;42.53;;;0.40;99.90;;;;;;5052033;28;20499;-85
2023/01/19 07:19:49;;;;;;;40.70;24.95;;;0.00;99.90;;;;;;5052802;28;20049;-85
2023/01/19 07:22:15;;;;;;;28.95;19.52;;;-0.20;99.90;;;;;;5052645;28;20025;-85
2023/01/19 07:24:41;;;;;;;27.95;17.85;;;-0.20;99.90;;;;;;5052251;28;20114;-85
2023/01/19 07:27:07;;;;;;;28.70;18.05;;;0.40;99.90;;;;;;5052249;28;20029;-85
2023/01/19 07:29:32;;;;;;;26.65;18.20;;;0.00;99.90;;;;;;5052554;28;20473;-85
2023/01/19 07:31:58;;;;;;;27.02;18.27;;;0.00;99.90;;;;;;5051971;28;20064;-85
2023/01/19 07:34:23;;;;;;;26.42;17.30;;;0.10;99.90;;;;;;5052111;28;20115;-85
2023/01/19 07:36:49;;;;;;;28.42;19.05;;;0.20;99.90;;;;;;5052460;28;20032;-85
2023/01/19 07:39:15;;;;;;;35.50;22.98;;;0.70;99.90;;;;;;5052590;28;20033;-85
2023/01/19 07:41:40;;;;;;;39.55;27.05;;;0.40;99.90;;;;;;5051958;28;20028;-85
2023/01/19 07:44:07;;;;;;;36.50;24.48;;;0.50;99.90;;;;;;5052274;28;20119;-85
2023/01/19 07:46:33;;;;;;;45.30;24.40;;;0.60;99.90;;;;;;5051731;28;20097;-85
2023/01/19 07:48:59;;;;;;;34.13;21.08;;;0.70;99.90;;;;;;5051832;28;20481;-85
2023/01/19 07:51:24;;;;;;;34.55;21.92;;;1.10;99.90;;;;;;5052048;28;20393;-85
2023/01/19 07:53:50;;;;;;;30.67;21.10;;;0.80;99.90;;;;;;5051690;28;20066;-84
2023/01/19 07:56:16;;;;;;;34.75;22.60;;;0.80;99.90;;;;;;5052110;28;20032;-85
2023/01/19 07:58:42;;;;;;;34.53;19.38;;;0.90;99.90;;;;;;5050408;28;20036;-85
2023/01/19 08:01:09;;;;;;;30.40;19.58;;;0.80;99.90;;;;;;5051370;28;20119;-85
2023/01/19 08:03:35;;;;;;;67.38;31.75;;;0.90;99.90;;;;;;5033622;28;20025;-85
2023/01/19 08:06:02;;;;;;;31.75;20.25;;;1.10;99.90;;;;;;5052015;28;20564;-85
2023/01/19 08:08:31;;;;;;;29.50;19.10;;;0.70;99.90;;;;;;5052189;28;20066;-85
2023/01/19 08:10:57;;;;;;;86.43;41.28;;;0.90;99.90;;;;;;5033529;28;20389;-85
2023/01/19 08:13:23;;;;;;;36.95;22.30;;;1.00;99.90;;;;;;5051592;28;20068;-85
2023/01/19 08:15:50;;;;;;;38.10;23.80;;;1.20;99.90;;;;;;5051349;28;20036;-85
2023/01/19 08:18:16;;;;;;;30.48;19.02;;;1.50;99.90;;;;;;5051402;28;20571;-85
2023/01/19 08:20:42;;;;;;;29.65;18.75;;;1.70;99.90;;;;;;5051204;28;20401;-85
2023/01/19 08:23:08;;;;;;;28.92;18.67;;;2.50;99.90;;;;;;5051937;28;20132;-85
2023/01/19 08:25:43;;;;;;;26.52;17.27;;;3.40;99.90;;;;;;5051179;28;20051;-85
2023/01/19 08:28:10;;;;;;;27.83;16.42;;;4.70;99.90;;;;;;5051757;28;20025;-85
2023/01/19 08:30:37;;;;;;;26.80;16.38;;;7.20;99.90;;;;;;5051223;28;20021;-85
2023/01/19 08:33:03;;;;;;;25.35;16.20;;;6.60;99.90;;;;;;5050118;28;20032;-85
2023/01/19 08:35:41;;;;;;;25.33;16.33;;;4.80;99.90;;;;;;5051680;28;20025;-85
2023/01/19 08:38:08;;;;;;;25.67;16.60;;;4.00;99.90;;;;;;5051401;28;20071;-85
2023/01/19 08:40:38;;;;;;;24.55;17.13;;;3.40;99.90;;;;;;5051613;28;20037;-85
2023/01/19 08:43:09;;;;;;;27.23;17.23;;;3.10;99.90;;;;;;5051340;28;20029;-85
2023/01/19 08:45:47;;;;;;;24.45;17.33;;;3.30;99.90;;;;;;5050940;28;20393;-85
2023/01/19 08:48:14;;;;;;;26.88;17.70;;;3.50;99.90;;;;;;5051182;28;20056;-85
2023/01/19 08:50:39;;;;;;;30.40;18.88;;;3.50;99.90;;;;;;5051492;28;20028;-85
2023/01/19 08:53:06;;;;;;;29.77;18.63;;;2.70;99.90;;;;;;5051739;28;20028;-85
2023/01/19 08:55:33;;;;;;;26.58;17.95;;;3.10;99.90;;;;;;5051134;28;20115;-85
2023/01/19 08:57:59;;;;;;;22.05;16.63;;;2.70;99.90;;;;;;5051301;28;20017;-85
2023/01/19 09:00:26;;;;;;;25.63;17.40;;;2.50;99.90;;;;;;5051159;28;20044;-85
2023/01/19 09:02:52;;;;;;;22.83;17.23;;;2.10;99.90;;;;;;5051055;28;20036;-85
2023/01/19 09:05:18;;;;;;;27.17;18.48;;;2.60;99.90;;;;;;5049364;28;20505;-82
2023/01/19 09:07:46;;;;;;;27.92;18.08;;;2.00;99.90;;;;;;5048718;28;20493;-82
2023/01/19 09:10:13;;;;;;;26.27;17.95;;;1.90;99.90;;;;;;5050525;28;20025;-83
2023/01/19 09:12:38;;;;;;;27.95;17.83;;;2.70;99.90;;;;;;5035546;28;20036;-83
2023/01/19 09:15:05;;;;;;;25.25;17.75;;;2.60;99.90;;;;;;5051017;28;20025;-82
2023/01/19 09:17:30;;;;;;;25.67;18.45;;;2.20;99.90;;;;;;5049907;28;20029;-83
2023/01/19 09:19:56;;;;;;;27.88;17.67;;;2.80;99.90;;;;;;5049606;28;20587;-82
2023/01/19 09:22:22;;;;;;;25.48;17.63;;;2.20;99.90;;;;;;5050764;28;20079;-82
2023/01/19 09:24:47;;;;;;;26.05;19.08;;;2.10;99.90;;;;;;5053961;28;20049;-82
2023/01/19 09:27:13;;;;;;;25.30;18.15;;;1.90;99.90;;;;;;5053120;28;20075;-82
2023/01/19 09:29:38;;;;;;;26.98;18.00;;;2.80;99.90;;;;;;5054523;28;20020;-82
2023/01/19 09:32:04;;;;;;;27.17;19.15;;;3.00;99.90;;;;;;5053773;28;20059;-82
2023/01/19 09:34:30;;;;;;;23.65;17.60;;;2.60;99.90;;;;;;5054423;28;20579;-82
2023/01/19 09:36:56;;;;;;;28.10;18.63;;;2.70;99.90;;;;;;5054317;28;20021;-82
2023/01/19 09:39:22;;;;;;;24.75;17.80;;;3.20;99.90;;;;;;5063457;28;20087;-82
2023/01/19 09:42:24;;;;;;;26.60;18.00;;;3.00;99.90;;;;;;5074191;28;20086;-83
2023/01/19 09:44:51;;;;;;;31.73;18.40;;;3.20;99.90;;;;;;5074528;28;20028;-81
2023/01/19 09:47:22;;;;;;;25.15;17.58;;;3.80;99.90;;;;;;5074049;28;20025;-82
2023/01/19 09:49:57;;;;;;;51.33;26.80;;;3.70;99.90;;;;;;5059724;28;20028;-82
2023/01/19 09:52:23;;;;;;;56.45;28.50;;;3.80;99.90;;;;;;5053472;28;20083;-82
2023/01/19 09:54:56;;;;;;;42.17;23.60;;;3.80;99.90;;;;;;5053821;28;20029;-82
2023/01/19 09:57:24;;;;;;;20.23;14.82;;;3.80;99.90;;;;;;5053799;28;20082;-83
2023/01/19 09:59:50;;;;;;;89.20;42.38;;;3.80;99.90;;;;;;5054305;28;20055;-82
2023/01/19 10:02:35;;;;;;;81.10;40.53;;;3.90;99.90;;;;;;5053723;28;20029;-82
2023/01/19 10:05:22;;;;;;;23.63;15.10;;;3.80;99.90;;;;;;5053527;28;20039;-82
2023/01/19 10:08:12;;;;;;;44.05;27.15;;;3.60;99.90;;;;;;5053735;28;20438;-83
2023/01/19 10:10:41;;;;;;;59.80;34.38;;;3.80;99.90;;;;;;5055443;28;20028;-82
2023/01/19 10:13:25;;;;;;;24.25;15.93;;;3.90;99.90;;;;;;5073600;28;20021;-83
2023/01/19 10:15:56;;;;;;;25.02;15.70;;;3.50;99.90;;;;;;5069638;28;20100;-83
2023/01/19 10:18:34;;;;;;;33.58;20.90;;;3.60;99.90;;;;;;5054036;28;20064;-83
2023/01/19 10:21:18;;;;;;;27.42;18.17;;;3.30;99.90;;;;;;5053395;28;20037;-83
2023/01/19 10:23:57;;;;;;;61.63;33.63;;;3.50;99.90;;;;;;5053650;28;20099;-82
2023/01/19 10:26:25;;;;;;;24.27;16.27;;;3.40;99.90;;;;;;5053123;28;20041;-83
2023/01/19 10:29:06;;;;;;;25.10;17.15;;;3.40;99.90;;;;;;5053225;28;20021;-83
2023/01/19 10:31:36;;;;;;;37.72;22.17;;;3.50;99.90;;;;;;5053401;28;20033;-83
2023/01/19 10:34:03;;;;;;;23.23;16.02;;;3.50;99.90;;;;;;5042117;28;20113;-82
2023/01/19 10:36:39;;;;;;;101.40;62.28;;;3.50;99.90;;;;;;5052893;28;20575;-83
2023/01/19 10:39:06;;;;;;;36.63;24.48;;;3.60;99.90;;;;;;5052427;28;20577;-83
2023/01/19 10:41:40;;;;;;;36.78;24.90;;;3.90;99.90;;;;;;5050482;28;20497;-83
2023/01/19 10:44:09;;;;;;;18.85;12.77;;;3.60;99.90;;;;;;5052357;28;20035;-82
2023/01/19 10:46:44;;;;;;;18.88;13.88;;;3.40;99.90;;;;;;5055253;28;20031;-83
2023/01/19 10:49:30;;;;;;;20.92;15.90;;;3.90;99.90;;;;;;5066341;28;20032;-83
2023/01/19 10:51:58;;;;;;;44.08;28.58;;;4.10;99.90;;;;;;5058592;28;20033;-83
2023/01/19 10:54:26;;;;;;;37.17;23.08;;;4.20;99.90;;;;;;5041906;28;20128;-82
2023/01/19 10:56:57;;;;;;;22.27;15.77;;;4.50;99.90;;;;;;5053236;28;20025;-83
2023/01/19 10:59:37;;;;;;;59.13;37.90;;;4.30;99.90;;;;;;5051852;28;20501;-83
2023/01/19 11:02:14;;;;;;;26.58;18.60;;;4.30;99.90;;;;;;5033384;28;20033;-83
2023/01/19 11:04:40;;;;;;;16.98;12.73;;;4.20;99.90;;;;;;5032711;28;20025;-83
2023/01/19 11:07:33;;;;;;;29.70;20.23;;;4.20;99.90;;;;;;5050292;28;20482;-83
2023/01/19 11:10:18;;;;;;;21.60;14.02;;;4.10;99.90;;;;;;5050303;28;20132;-83
2023/01/19 11:13:07;;;;;;;18.30;11.05;;;4.10;99.90;;;;;;5048975;28;20432;-83
2023/01/19 11:15:50;;;;;;;40.90;23.08;;;4.00;99.90;;;;;;5052863;28;20028;-89
2023/01/19 11:18:28;;;;;;;11.77;8.63;;;4.00;99.90;;;;;;5052462;28;20045;-83
2023/01/19 11:20:57;;;;;;;15.82;8.50;;;4.00;99.90;;;;;;5052227;28;20447;-82
2023/01/19 11:23:27;;;;;;;21.38;16.08;;;4.10;99.90;;;;;;5051919;28;20100;-82
2023/01/19 11:26:00;;;;;;;14.65;10.18;;;4.40;99.90;;;;;;5063034;28;20032;-83
2023/01/19 11:28:31;;;;;;;14.88;10.45;;;4.30;99.90;;;;;;5053150;28;20045;-83
2023/01/19 11:30:58;;;;;;;17.50;11.85;;;4.50;99.90;;;;;;5058346;28;20025;-83
2023/01/19 11:33:47;;;;;;;16.02;11.75;;;4.30;99.90;;;;;;5072067;28;20435;-83
2023/01/19 11:36:19;;;;;;;15.38;12.05;;;4.40;99.90;;;;;;5064193;28;20020;-84
2023/01/19 11:38:49;;;;;;;19.40;12.13;;;4.70;99.90;;;;;;5050087;28;20088;-84
2023/01/19 11:41:28;;;;;;;17.63;13.55;;;4.50;99.90;;;;;;5051790;28;20029;-85
2023/01/19 11:44:01;;;;;;;107.13;57.67;;;4.50;99.90;;;;;;5052080;28;20396;-84
2023/01/19 11:46:32;;;;;;;100.43;56.83;;;4.60;99.90;;;;;;5051242;28;20396;-84
2023/01/19 11:49:24;;;;;;;21.40;15.15;;;5.00;99.90;;;;;;5048392;28;20064;-84
2023/01/19 11:52:17;;;;;;;17.00;13.65;;;4.80;99.90;;;;;;5044579;28;20108;-84
2023/01/19 11:54:59;;;;;;;18.08;13.35;;;5.40;99.90;;;;;;5052079;28;20044;-84
2023/01/19 11:57:25;;;;;;;16.33;13.45;;;6.40;99.90;;;;;;5051431;28;20055;-83
2023/01/19 11:59:51;;;;;;;16.15;13.52;;;5.90;99.90;;;;;;5051172;28;20115;-83
2023/01/19 12:02:29;;;;;;;14.70;11.55;;;6.00;99.90;;;;;;5051465;28;20060;-84
2023/01/19 12:05:00;;;;;;;15.70;10.88;;;6.00;99.90;;;;;;5051475;28;20389;-84
2023/01/19 12:07:30;;;;;;;14.25;11.05;;;5.50;99.90;;;;;;5050124;28;20041;-84
2023/01/19 12:10:21;;;;;;;17.15;12.75;;;5.20;99.90;;;;;;5051500;28;20041;-85
2023/01/19 12:12:48;;;;;;;15.43;11.32;;;4.70;99.90;;;;;;5051365;28;20033;-84
2023/01/19 12:15:32;;;;;;;14.02;10.98;;;4.80;99.90;;;;;;5049449;28;20532;-85
2023/01/19 12:18:01;;;;;;;14.68;11.50;;;4.40;99.90;;;;;;5045767;28;20021;-84
2023/01/19 12:20:39;;;;;;;16.50;12.50;;;4.90;99.90;;;;;;5051593;28;20128;-83
2023/01/19 12:23:10;;;;;;;48.65;26.27;;;4.60;99.90;;;;;;5051427;28;20021;-82
2023/01/19 12:25:55;;;;;;;30.00;19.33;;;4.60;99.90;;;;;;5051509;28;20061;-84
2023/01/19 12:28:35;;;;;;;13.90;11.40;;;4.50;99.90;;;;;;5050633;28;20350;-84
2023/01/19 12:31:01;;;;;;;15.30;11.07;;;4.50;99.90;;;;;;5049207;28;20497;-84
2023/01/19 12:33:38;;;;;;;12.50;9.38;;;4.10;99.90;;;;;;5051634;28;20112;-85
2023/01/19 12:36:10;;;;;;;11.82;10.02;;;3.90;99.90;;;;;;5051326;28;20033;-84
2023/01/19 12:38:36;;;;;;;12.95;10.50;;;4.20;99.90;;;;;;5050170;28;20362;-83
2023/01/19 12:41:22;;;;;;;14.30;10.80;;;4.40;99.90;;;;;;5050868;28;20043;-83
2023/01/19 12:44:08;;;;;;;13.00;10.90;;;4.50;99.90;;;;;;5051097;28;20029;-83
2023/01/19 12:46:35;;;;;;;14.20;11.27;;;4.50;99.90;;;;;;5034047;28;20025;-83
2023/01/19 12:49:21;;;;;;;16.13;11.75;;;4.90;99.90;;;;;;5042937;28;20082;-84
2023/01/19 12:51:49;;;;;;;15.95;11.73;;;4.80;99.90;;;;;;5049628;28;20032;-84
2023/01/19 12:54:31;;;;;;;15.93;12.70;;;4.30;99.90;;;;;;5069080;28;20048;-84